sensor_id;sensor_type;location;lat;lon;timestamp;P1;durP1;ratioP1;P2;durP2;ratioP2
31990;SDS011;18508;49.386;8.370;2023-12-28T00:00:43;10.85;;;6.13;;
31990;SDS011;18508;49.386;8.370;2023-12-28T00:03:11;13.52;;;6.55;;
31990;SDS011;18508;49.386;8.370;2023-12-28T00:05:42;15.88;;;7.68;;
31990;SDS011;18508;49.386;8.370;2023-12-28T00:08:11;20.45;;;10.30;;
31990;SDS011;18508;49.386;8.370;2023-12-28T00:10:39;25.23;;;13.02;;
31990;SDS011;18508;49.386;8.370;2023-12-28T00:13:08;23.30;;;12.85;;
31990;SDS011;18508;49.386;8.370;2023-12-28T00:15:36;24.75;;;12.40;;
31990;SDS011;18508;49.386;8.370;2023-12-28T00:18:06;15.32;;;8.35;;
31990;SDS011;18508;49.386;8.370;2023-12-28T00:20:35;13.68;;;6.63;;
31990;SDS011;18508;49.386;8.370;2023-12-28T00:23:03;15.45;;;6.57;;
31990;SDS011;18508;49.386;8.370;2023-12-28T00:25:32;17.00;;;6.30;;
31990;SDS011;18508;49.386;8.370;2023-12-28T00:28:01;10.80;;;5.35;;
31990;SDS011;18508;49.386;8.370;2023-12-28T00:30:29;13.88;;;6.32;;
31990;SDS011;18508;49.386;8.370;2023-12-28T00:32:58;10.60;;;5.50;;
31990;SDS011;18508;49.386;8.370;2023-12-28T00:35:29;11.93;;;5.60;;
31990;SDS011;18508;49.386;8.370;2023-12-28T00:37:57;13.75;;;6.65;;
31990;SDS011;18508;49.386;8.370;2023-12-28T00:40:26;11.35;;;6.13;;
31990;SDS011;18508;49.386;8.370;2023-12-28T00:42:54;7.75;;;4.97;;
31990;SDS011;18508;49.386;8.370;2023-12-28T00:45:23;9.52;;;5.22;;
31990;SDS011;18508;49.386;8.370;2023-12-28T00:47:51;9.00;;;5.78;;
31990;SDS011;18508;49.386;8.370;2023-12-28T00:50:23;9.35;;;5.55;;
31990;SDS011;18508;49.386;8.370;2023-12-28T00:52:55;9.32;;;5.53;;
31990;SDS011;18508;49.386;8.370;2023-12-28T00:55:23;10.93;;;5.63;;
31990;SDS011;18508;49.386;8.370;2023-12-28T00:57:51;9.40;;;5.65;;
31990;SDS011;18508;49.386;8.370;2023-12-28T01:00:20;7.55;;;4.95;;
31990;SDS011;18508;49.386;8.370;2023-12-28T01:02:48;9.63;;;5.00;;
31990;SDS011;18508;49.386;8.370;2023-12-28T01:05:17;8.57;;;4.68;;
31990;SDS011;18508;49.386;8.370;2023-12-28T01:07:47;12.63;;;5.50;;
31990;SDS011;18508;49.386;8.370;2023-12-28T01:10:17;8.82;;;5.15;;
31990;SDS011;18508;49.386;8.370;2023-12-28T01:12:45;8.88;;;5.07;;
31990;SDS011;18508;49.386;8.370;2023-12-28T01:15:14;9.48;;;5.18;;
31990;SDS011;18508;49.386;8.370;2023-12-28T01:17:44;7.97;;;4.40;;
31990;SDS011;18508;49.386;8.370;2023-12-28T01:20:13;9.93;;;4.65;;
31990;SDS011;18508;49.386;8.370;2023-12-28T01:22:41;7.25;;;4.82;;
31990;SDS011;18508;49.386;8.370;2023-12-28T01:25:10;11.80;;;5.20;;
31990;SDS011;18508;49.386;8.370;2023-12-28T01:27:40;8.05;;;4.70;;
31990;SDS011;18508;49.386;8.370;2023-12-28T01:30:08;8.88;;;5.25;;
31990;SDS011;18508;49.386;8.370;2023-12-28T01:32:37;7.78;;;4.10;;
31990;SDS011;18508;49.386;8.370;2023-12-28T01:35:05;7.90;;;4.35;;
31990;SDS011;18508;49.386;8.370;2023-12-28T01:37:34;8.60;;;4.55;;
31990;SDS011;18508;49.386;8.370;2023-12-28T01:40:03;7.18;;;4.22;;
31990;SDS011;18508;49.386;8.370;2023-12-28T01:42:32;9.73;;;4.95;;
31990;SDS011;18508;49.386;8.370;2023-12-28T01:45:03;6.90;;;3.90;;
31990;SDS011;18508;49.386;8.370;2023-12-28T01:47:33;9.40;;;4.70;;
31990;SDS011;18508;49.386;8.370;2023-12-28T01:50:02;8.45;;;4.30;;
31990;SDS011;18508;49.386;8.370;2023-12-28T01:52:32;8.38;;;4.55;;
31990;SDS011;18508;49.386;8.370;2023-12-28T01:55:00;7.57;;;4.40;;
31990;SDS011;18508;49.386;8.370;2023-12-28T01:57:29;8.55;;;4.75;;
31990;SDS011;18508;49.386;8.370;2023-12-28T01:59:57;8.55;;;4.28;;
31990;SDS011;18508;49.386;8.370;2023-12-28T02:02:29;7.10;;;3.97;;
31990;SDS011;18508;49.386;8.370;2023-12-28T02:04:59;8.88;;;4.15;;
31990;SDS011;18508;49.386;8.370;2023-12-28T02:07:29;9.50;;;5.03;;
31990;SDS011;18508;49.386;8.370;2023-12-28T02:09:57;6.32;;;3.83;;
31990;SDS011;18508;49.386;8.370;2023-12-28T02:12:26;7.57;;;4.25;;
31990;SDS011;18508;49.386;8.370;2023-12-28T02:14:54;6.28;;;3.70;;
31990;SDS011;18508;49.386;8.370;2023-12-28T02:17:23;7.10;;;3.90;;
31990;SDS011;18508;49.386;8.370;2023-12-28T02:19:57;5.95;;;2.88;;
31990;SDS011;18508;49.386;8.370;2023-12-28T02:22:26;6.50;;;3.67;;
31990;SDS011;18508;49.386;8.370;2023-12-28T02:24:59;5.65;;;3.45;;
31990;SDS011;18508;49.386;8.370;2023-12-28T02:27:32;6.88;;;3.97;;
31990;SDS011;18508;49.386;8.370;2023-12-28T02:30:04;7.28;;;3.10;;
31990;SDS011;18508;49.386;8.370;2023-12-28T02:32:37;5.75;;;4.00;;
31990;SDS011;18508;49.386;8.370;2023-12-28T02:35:16;7.20;;;4.03;;
31990;SDS011;18508;49.386;8.370;2023-12-28T02:37:49;4.70;;;3.33;;
31990;SDS011;18508;49.386;8.370;2023-12-28T02:40:21;6.38;;;3.25;;
31990;SDS011;18508;49.386;8.370;2023-12-28T02:42:50;7.50;;;4.15;;
31990;SDS011;18508;49.386;8.370;2023-12-28T02:45:19;6.28;;;3.80;;
31990;SDS011;18508;49.386;8.370;2023-12-28T02:47:47;6.43;;;3.60;;
31990;SDS011;18508;49.386;8.370;2023-12-28T02:50:16;6.25;;;3.50;;
31990;SDS011;18508;49.386;8.370;2023-12-28T02:52:44;5.40;;;3.45;;
31990;SDS011;18508;49.386;8.370;2023-12-28T02:55:13;6.07;;;3.60;;
31990;SDS011;18508;49.386;8.370;2023-12-28T02:57:43;7.82;;;3.20;;
31990;SDS011;18508;49.386;8.370;2023-12-28T03:00:12;5.35;;;3.28;;
31990;SDS011;18508;49.386;8.370;2023-12-28T03:02:41;7.75;;;3.28;;
31990;SDS011;18508;49.386;8.370;2023-12-28T03:05:09;6.07;;;3.42;;
31990;SDS011;18508;49.386;8.370;2023-12-28T03:07:38;6.18;;;3.22;;
31990;SDS011;18508;49.386;8.370;2023-12-28T03:10:07;6.80;;;3.55;;
31990;SDS011;18508;49.386;8.370;2023-12-28T03:12:40;6.93;;;3.38;;
31990;SDS011;18508;49.386;8.370;2023-12-28T03:15:10;6.95;;;3.63;;
31990;SDS011;18508;49.386;8.370;2023-12-28T03:17:39;10.50;;;3.83;;
31990;SDS011;18508;49.386;8.370;2023-12-28T03:20:08;9.23;;;4.30;;
31990;SDS011;18508;49.386;8.370;2023-12-28T03:22:37;5.55;;;3.22;;
31990;SDS011;18508;49.386;8.370;2023-12-28T03:25:06;5.85;;;3.28;;
31990;SDS011;18508;49.386;8.370;2023-12-28T03:27:34;7.25;;;3.55;;
31990;SDS011;18508;49.386;8.370;2023-12-28T03:30:03;7.28;;;3.20;;
31990;SDS011;18508;49.386;8.370;2023-12-28T03:32:33;8.63;;;3.78;;
31990;SDS011;18508;49.386;8.370;2023-12-28T03:35:02;7.10;;;3.60;;
31990;SDS011;18508;49.386;8.370;2023-12-28T03:37:32;5.88;;;3.45;;
31990;SDS011;18508;49.386;8.370;2023-12-28T03:40:00;8.68;;;3.85;;
31990;SDS011;18508;49.386;8.370;2023-12-28T03:42:28;6.30;;;3.55;;
31990;SDS011;18508;49.386;8.370;2023-12-28T03:44:57;7.82;;;3.40;;
31990;SDS011;18508;49.386;8.370;2023-12-28T03:47:26;7.63;;;3.65;;
31990;SDS011;18508;49.386;8.370;2023-12-28T03:49:56;5.57;;;3.50;;
31990;SDS011;18508;49.386;8.370;2023-12-28T03:52:25;7.00;;;4.03;;
31990;SDS011;18508;49.386;8.370;2023-12-28T03:54:56;7.70;;;3.77;;
31990;SDS011;18508;49.386;8.370;2023-12-28T03:57:25;5.63;;;3.28;;
31990;SDS011;18508;49.386;8.370;2023-12-28T03:59:54;5.88;;;2.65;;
31990;SDS011;18508;49.386;8.370;2023-12-28T04:02:23;6.65;;;3.30;;
31990;SDS011;18508;49.386;8.370;2023-12-28T04:04:55;5.35;;;2.90;;
31990;SDS011;18508;49.386;8.370;2023-12-28T04:07:25;5.35;;;2.70;;
31990;SDS011;18508;49.386;8.370;2023-12-28T04:09:53;5.75;;;2.80;;
31990;SDS011;18508;49.386;8.370;2023-12-28T04:12:22;7.15;;;2.95;;
31990;SDS011;18508;49.386;8.370;2023-12-28T04:14:51;5.78;;;3.30;;
31990;SDS011;18508;49.386;8.370;2023-12-28T04:17:20;9.18;;;3.92;;
31990;SDS011;18508;49.386;8.370;2023-12-28T04:19:48;7.60;;;3.35;;
31990;SDS011;18508;49.386;8.370;2023-12-28T04:22:18;8.10;;;3.55;;
31990;SDS011;18508;49.386;8.370;2023-12-28T04:24:46;6.85;;;3.42;;
31990;SDS011;18508;49.386;8.370;2023-12-28T04:27:14;5.47;;;3.03;;
31990;SDS011;18508;49.386;8.370;2023-12-28T04:29:43;5.70;;;3.05;;
31990;SDS011;18508;49.386;8.370;2023-12-28T04:32:12;6.55;;;3.25;;
31990;SDS011;18508;49.386;8.370;2023-12-28T04:34:41;8.25;;;3.50;;
31990;SDS011;18508;49.386;8.370;2023-12-28T04:37:09;4.88;;;2.65;;
31990;SDS011;18508;49.386;8.370;2023-12-28T04:39:39;7.95;;;3.40;;
31990;SDS011;18508;49.386;8.370;2023-12-28T04:42:07;5.45;;;2.88;;
31990;SDS011;18508;49.386;8.370;2023-12-28T04:44:37;4.25;;;2.80;;
31990;SDS011;18508;49.386;8.370;2023-12-28T04:47:05;5.68;;;2.80;;
31990;SDS011;18508;49.386;8.370;2023-12-28T04:49:34;5.78;;;2.80;;
31990;SDS011;18508;49.386;8.370;2023-12-28T04:52:03;5.03;;;2.80;;
31990;SDS011;18508;49.386;8.370;2023-12-28T04:54:31;8.68;;;3.20;;
31990;SDS011;18508;49.386;8.370;2023-12-28T04:57:01;5.28;;;2.47;;
31990;SDS011;18508;49.386;8.370;2023-12-28T04:59:30;4.90;;;2.25;;
31990;SDS011;18508;49.386;8.370;2023-12-28T05:01:58;4.90;;;2.45;;
31990;SDS011;18508;49.386;8.370;2023-12-28T05:04:27;6.40;;;2.47;;
31990;SDS011;18508;49.386;8.370;2023-12-28T05:06:55;4.85;;;2.20;;
31990;SDS011;18508;49.386;8.370;2023-12-28T05:09:24;5.38;;;2.50;;
31990;SDS011;18508;49.386;8.370;2023-12-28T05:11:52;5.70;;;2.80;;
31990;SDS011;18508;49.386;8.370;2023-12-28T05:14:22;5.25;;;2.38;;
31990;SDS011;18508;49.386;8.370;2023-12-28T05:16:50;4.43;;;2.53;;
31990;SDS011;18508;49.386;8.370;2023-12-28T05:19:18;5.05;;;2.38;;
31990;SDS011;18508;49.386;8.370;2023-12-28T05:21:47;6.00;;;2.30;;
31990;SDS011;18508;49.386;8.370;2023-12-28T05:24:16;4.38;;;2.45;;
31990;SDS011;18508;49.386;8.370;2023-12-28T05:26:44;4.30;;;2.40;;
31990;SDS011;18508;49.386;8.370;2023-12-28T05:29:12;4.53;;;2.55;;
31990;SDS011;18508;49.386;8.370;2023-12-28T05:31:42;4.72;;;2.63;;
31990;SDS011;18508;49.386;8.370;2023-12-28T05:34:10;5.80;;;2.60;;
31990;SDS011;18508;49.386;8.370;2023-12-28T05:36:39;5.15;;;2.70;;
31990;SDS011;18508;49.386;8.370;2023-12-28T05:39:08;5.32;;;3.03;;
31990;SDS011;18508;49.386;8.370;2023-12-28T05:41:38;4.43;;;2.40;;
31990;SDS011;18508;49.386;8.370;2023-12-28T05:44:06;4.18;;;2.42;;
31990;SDS011;18508;49.386;8.370;2023-12-28T05:46:34;6.47;;;2.17;;
31990;SDS011;18508;49.386;8.370;2023-12-28T05:49:03;4.90;;;2.60;;
31990;SDS011;18508;49.386;8.370;2023-12-28T05:51:36;4.05;;;2.30;;
31990;SDS011;18508;49.386;8.370;2023-12-28T05:54:06;5.25;;;2.83;;
31990;SDS011;18508;49.386;8.370;2023-12-28T05:56:35;6.70;;;2.70;;
31990;SDS011;18508;49.386;8.370;2023-12-28T05:59:03;5.70;;;2.53;;
31990;SDS011;18508;49.386;8.370;2023-12-28T06:01:40;5.13;;;2.80;;
31990;SDS011;18508;49.386;8.370;2023-12-28T06:04:11;4.82;;;2.42;;
31990;SDS011;18508;49.386;8.370;2023-12-28T06:06:39;4.53;;;2.42;;
31990;SDS011;18508;49.386;8.370;2023-12-28T06:09:08;5.05;;;2.58;;
31990;SDS011;18508;49.386;8.370;2023-12-28T06:11:38;4.30;;;2.40;;
31990;SDS011;18508;49.386;8.370;2023-12-28T06:14:06;3.65;;;2.33;;
31990;SDS011;18508;49.386;8.370;2023-12-28T06:16:35;4.55;;;2.65;;
31990;SDS011;18508;49.386;8.370;2023-12-28T06:19:03;5.20;;;2.40;;
31990;SDS011;18508;49.386;8.370;2023-12-28T06:21:34;5.82;;;3.20;;
31990;SDS011;18508;49.386;8.370;2023-12-28T06:24:02;5.03;;;2.88;;
31990;SDS011;18508;49.386;8.370;2023-12-28T06:26:30;6.65;;;2.70;;
31990;SDS011;18508;49.386;8.370;2023-12-28T06:28:59;6.63;;;3.08;;
31990;SDS011;18508;49.386;8.370;2023-12-28T06:31:28;5.13;;;2.38;;
31990;SDS011;18508;49.386;8.370;2023-12-28T06:33:56;5.35;;;2.72;;
31990;SDS011;18508;49.386;8.370;2023-12-28T06:36:25;4.78;;;2.40;;
31990;SDS011;18508;49.386;8.370;2023-12-28T06:38:55;5.35;;;2.65;;
31990;SDS011;18508;49.386;8.370;2023-12-28T06:41:23;5.07;;;2.92;;
31990;SDS011;18508;49.386;8.370;2023-12-28T06:43:52;5.40;;;3.22;;
31990;SDS011;18508;49.386;8.370;2023-12-28T06:46:20;7.25;;;2.90;;
31990;SDS011;18508;49.386;8.370;2023-12-28T06:48:50;4.40;;;2.50;;
31990;SDS011;18508;49.386;8.370;2023-12-28T06:51:19;6.43;;;2.78;;
31990;SDS011;18508;49.386;8.370;2023-12-28T06:53:48;6.25;;;3.10;;
31990;SDS011;18508;49.386;8.370;2023-12-28T06:56:18;4.95;;;2.58;;
31990;SDS011;18508;49.386;8.370;2023-12-28T06:58:47;5.30;;;3.20;;
31990;SDS011;18508;49.386;8.370;2023-12-28T07:01:15;4.80;;;2.50;;
31990;SDS011;18508;49.386;8.370;2023-12-28T07:03:44;12.27;;;2.88;;
31990;SDS011;18508;49.386;8.370;2023-12-28T07:06:13;5.10;;;2.60;;
31990;SDS011;18508;49.386;8.370;2023-12-28T07:08:41;8.27;;;3.30;;
31990;SDS011;18508;49.386;8.370;2023-12-28T07:11:09;3.97;;;2.33;;
31990;SDS011;18508;49.386;8.370;2023-12-28T07:13:39;4.47;;;2.40;;
31990;SDS011;18508;49.386;8.370;2023-12-28T07:16:07;4.55;;;2.33;;
31990;SDS011;18508;49.386;8.370;2023-12-28T07:18:36;5.93;;;2.80;;
31990;SDS011;18508;49.386;8.370;2023-12-28T07:21:05;6.63;;;2.97;;
31990;SDS011;18508;49.386;8.370;2023-12-28T07:23:36;7.65;;;4.13;;
31990;SDS011;18508;49.386;8.370;2023-12-28T07:26:04;5.82;;;2.65;;
31990;SDS011;18508;49.386;8.370;2023-12-28T07:28:33;5.65;;;2.75;;
31990;SDS011;18508;49.386;8.370;2023-12-28T07:31:03;8.30;;;3.35;;
31990;SDS011;18508;49.386;8.370;2023-12-28T07:33:32;5.78;;;2.80;;
31990;SDS011;18508;49.386;8.370;2023-12-28T07:36:00;4.75;;;3.05;;
31990;SDS011;18508;49.386;8.370;2023-12-28T07:38:30;5.30;;;2.75;;
31990;SDS011;18508;49.386;8.370;2023-12-28T07:40:58;5.80;;;3.13;;
31990;SDS011;18508;49.386;8.370;2023-12-28T07:43:26;4.65;;;2.97;;
31990;SDS011;18508;49.386;8.370;2023-12-28T07:45:55;4.13;;;2.58;;
31990;SDS011;18508;49.386;8.370;2023-12-28T07:48:25;7.57;;;3.08;;
31990;SDS011;18508;49.386;8.370;2023-12-28T07:50:53;5.85;;;2.72;;
31990;SDS011;18508;49.386;8.370;2023-12-28T07:53:22;6.72;;;2.88;;
31990;SDS011;18508;49.386;8.370;2023-12-28T07:55:51;5.40;;;2.65;;
31990;SDS011;18508;49.386;8.370;2023-12-28T07:58:20;4.57;;;2.47;;
31990;SDS011;18508;49.386;8.370;2023-12-28T08:00:48;4.75;;;2.80;;
31990;SDS011;18508;49.386;8.370;2023-12-28T08:03:18;8.60;;;2.92;;
31990;SDS011;18508;49.386;8.370;2023-12-28T08:05:48;6.63;;;2.53;;
31990;SDS011;18508;49.386;8.370;2023-12-28T08:08:16;5.07;;;2.80;;
31990;SDS011;18508;49.386;8.370;2023-12-28T08:10:45;5.60;;;3.42;;
31990;SDS011;18508;49.386;8.370;2023-12-28T08:13:13;7.03;;;2.38;;
31990;SDS011;18508;49.386;8.370;2023-12-28T08:15:44;6.15;;;3.20;;
31990;SDS011;18508;49.386;8.370;2023-12-28T08:18:13;5.40;;;3.00;;
31990;SDS011;18508;49.386;8.370;2023-12-28T08:20:41;4.85;;;2.42;;
31990;SDS011;18508;49.386;8.370;2023-12-28T08:23:11;4.43;;;2.38;;
31990;SDS011;18508;49.386;8.370;2023-12-28T08:25:44;5.05;;;2.58;;
31990;SDS011;18508;49.386;8.370;2023-12-28T08:28:12;5.50;;;3.08;;
31990;SDS011;18508;49.386;8.370;2023-12-28T08:30:40;4.95;;;2.40;;
31990;SDS011;18508;49.386;8.370;2023-12-28T08:33:09;4.25;;;2.63;;
31990;SDS011;18508;49.386;8.370;2023-12-28T08:35:38;4.35;;;2.70;;
31990;SDS011;18508;49.386;8.370;2023-12-28T08:38:06;5.47;;;3.70;;
31990;SDS011;18508;49.386;8.370;2023-12-28T08:40:35;7.10;;;3.55;;
31990;SDS011;18508;49.386;8.370;2023-12-28T08:43:03;4.65;;;2.70;;
31990;SDS011;18508;49.386;8.370;2023-12-28T08:45:34;5.35;;;2.72;;
31990;SDS011;18508;49.386;8.370;2023-12-28T08:48:03;6.78;;;2.58;;
31990;SDS011;18508;49.386;8.370;2023-12-28T08:50:32;4.45;;;2.63;;
31990;SDS011;18508;49.386;8.370;2023-12-28T08:53:04;10.05;;;2.67;;
31990;SDS011;18508;49.386;8.370;2023-12-28T08:55:33;6.30;;;2.88;;
31990;SDS011;18508;49.386;8.370;2023-12-28T08:58:02;5.85;;;2.75;;
31990;SDS011;18508;49.386;8.370;2023-12-28T09:00:31;5.72;;;2.40;;
31990;SDS011;18508;49.386;8.370;2023-12-28T09:03:00;7.22;;;2.70;;
31990;SDS011;18508;49.386;8.370;2023-12-28T09:05:28;5.45;;;3.10;;
31990;SDS011;18508;49.386;8.370;2023-12-28T09:07:57;6.18;;;2.80;;
31990;SDS011;18508;49.386;8.370;2023-12-28T09:10:26;5.15;;;2.15;;
31990;SDS011;18508;49.386;8.370;2023-12-28T09:12:54;5.88;;;2.47;;
31990;SDS011;18508;49.386;8.370;2023-12-28T09:15:25;5.53;;;2.60;;
31990;SDS011;18508;49.386;8.370;2023-12-28T09:17:55;7.40;;;2.58;;
31990;SDS011;18508;49.386;8.370;2023-12-28T09:20:24;5.35;;;2.78;;
31990;SDS011;18508;49.386;8.370;2023-12-28T09:22:52;4.43;;;2.70;;
31990;SDS011;18508;49.386;8.370;2023-12-28T09:25:22;6.60;;;3.30;;
31990;SDS011;18508;49.386;8.370;2023-12-28T09:27:51;6.78;;;2.53;;
31990;SDS011;18508;49.386;8.370;2023-12-28T09:30:20;5.05;;;2.78;;
31990;SDS011;18508;49.386;8.370;2023-12-28T09:32:49;4.85;;;2.40;;
31990;SDS011;18508;49.386;8.370;2023-12-28T09:35:19;5.53;;;2.95;;
31990;SDS011;18508;49.386;8.370;2023-12-28T09:37:48;4.80;;;2.83;;
31990;SDS011;18508;49.386;8.370;2023-12-28T09:40:16;5.20;;;2.95;;
31990;SDS011;18508;49.386;8.370;2023-12-28T09:42:47;6.10;;;2.50;;
31990;SDS011;18508;49.386;8.370;2023-12-28T09:45:21;4.88;;;2.70;;
31990;SDS011;18508;49.386;8.370;2023-12-28T09:47:51;7.18;;;2.65;;
31990;SDS011;18508;49.386;8.370;2023-12-28T09:50:20;5.00;;;2.55;;
31990;SDS011;18508;49.386;8.370;2023-12-28T09:52:53;5.15;;;2.95;;
31990;SDS011;18508;49.386;8.370;2023-12-28T09:55:22;8.32;;;2.85;;
31990;SDS011;18508;49.386;8.370;2023-12-28T09:57:51;4.65;;;2.45;;
31990;SDS011;18508;49.386;8.370;2023-12-28T10:00:19;4.68;;;2.53;;
31990;SDS011;18508;49.386;8.370;2023-12-28T10:02:48;6.20;;;2.40;;
31990;SDS011;18508;49.386;8.370;2023-12-28T10:05:21;6.93;;;3.28;;
31990;SDS011;18508;49.386;8.370;2023-12-28T10:07:53;6.78;;;3.58;;
31990;SDS011;18508;49.386;8.370;2023-12-28T10:10:26;8.57;;;3.85;;
31990;SDS011;18508;49.386;8.370;2023-12-28T10:12:56;5.85;;;3.35;;
31990;SDS011;18508;49.386;8.370;2023-12-28T10:15:30;8.00;;;3.53;;
31990;SDS011;18508;49.386;8.370;2023-12-28T10:17:59;4.32;;;2.75;;
31990;SDS011;18508;49.386;8.370;2023-12-28T10:20:29;6.88;;;3.20;;
31990;SDS011;18508;49.386;8.370;2023-12-28T10:22:58;5.38;;;3.17;;
31990;SDS011;18508;49.386;8.370;2023-12-28T10:25:28;4.90;;;2.80;;
31990;SDS011;18508;49.386;8.370;2023-12-28T10:28:03;5.82;;;2.90;;
31990;SDS011;18508;49.386;8.370;2023-12-28T10:30:33;7.60;;;3.30;;
31990;SDS011;18508;49.386;8.370;2023-12-28T10:33:05;6.10;;;3.22;;
31990;SDS011;18508;49.386;8.370;2023-12-28T10:35:38;5.57;;;2.65;;
31990;SDS011;18508;49.386;8.370;2023-12-28T10:38:07;5.70;;;3.13;;
31990;SDS011;18508;49.386;8.370;2023-12-28T10:40:46;6.18;;;3.33;;
31990;SDS011;18508;49.386;8.370;2023-12-28T10:43:16;4.35;;;2.60;;
31990;SDS011;18508;49.386;8.370;2023-12-28T10:45:50;5.43;;;2.67;;
31990;SDS011;18508;49.386;8.370;2023-12-28T10:48:21;4.35;;;2.50;;
31990;SDS011;18508;49.386;8.370;2023-12-28T10:50:58;4.05;;;2.78;;
31990;SDS011;18508;49.386;8.370;2023-12-28T10:53:33;6.00;;;2.75;;
31990;SDS011;18508;49.386;8.370;2023-12-28T10:56:13;4.88;;;2.67;;
31990;SDS011;18508;49.386;8.370;2023-12-28T10:58:51;4.93;;;2.50;;
31990;SDS011;18508;49.386;8.370;2023-12-28T11:01:28;5.93;;;2.83;;
31990;SDS011;18508;49.386;8.370;2023-12-28T11:04:02;6.82;;;2.92;;
31990;SDS011;18508;49.386;8.370;2023-12-28T11:06:37;3.08;;;2.00;;
31990;SDS011;18508;49.386;8.370;2023-12-28T11:09:09;4.65;;;2.22;;
31990;SDS011;18508;49.386;8.370;2023-12-28T11:11:39;5.63;;;2.00;;
31990;SDS011;18508;49.386;8.370;2023-12-28T11:14:12;4.32;;;2.30;;
31990;SDS011;18508;49.386;8.370;2023-12-28T11:16:41;3.78;;;1.90;;
31990;SDS011;18508;49.386;8.370;2023-12-28T11:19:09;3.75;;;1.85;;
31990;SDS011;18508;49.386;8.370;2023-12-28T11:21:40;5.80;;;1.92;;
31990;SDS011;18508;49.386;8.370;2023-12-28T11:24:10;3.72;;;2.10;;
31990;SDS011;18508;49.386;8.370;2023-12-28T11:26:39;7.45;;;3.22;;
31990;SDS011;18508;49.386;8.370;2023-12-28T11:29:08;6.93;;;2.72;;
31990;SDS011;18508;49.386;8.370;2023-12-28T11:31:36;4.38;;;2.20;;
31990;SDS011;18508;49.386;8.370;2023-12-28T11:34:05;5.97;;;2.58;;
31990;SDS011;18508;49.386;8.370;2023-12-28T11:36:43;3.85;;;2.15;;
31990;SDS011;18508;49.386;8.370;2023-12-28T11:39:19;5.10;;;2.40;;
31990;SDS011;18508;49.386;8.370;2023-12-28T11:41:58;4.72;;;2.20;;
31990;SDS011;18508;49.386;8.370;2023-12-28T11:44:29;4.32;;;2.33;;
31990;SDS011;18508;49.386;8.370;2023-12-28T11:47:10;4.18;;;2.38;;
31990;SDS011;18508;49.386;8.370;2023-12-28T11:49:39;5.60;;;2.50;;
31990;SDS011;18508;49.386;8.370;2023-12-28T11:52:10;5.43;;;2.95;;
31990;SDS011;18508;49.386;8.370;2023-12-28T11:54:38;5.28;;;2.22;;
31990;SDS011;18508;49.386;8.370;2023-12-28T11:57:09;4.57;;;2.38;;
31990;SDS011;18508;49.386;8.370;2023-12-28T11:59:37;5.90;;;2.78;;
31990;SDS011;18508;49.386;8.370;2023-12-28T12:02:05;4.85;;;2.60;;
31990;SDS011;18508;49.386;8.370;2023-12-28T12:04:37;5.07;;;2.47;;
31990;SDS011;18508;49.386;8.370;2023-12-28T12:07:06;4.22;;;2.03;;
31990;SDS011;18508;49.386;8.370;2023-12-28T12:09:36;7.50;;;2.70;;
31990;SDS011;18508;49.386;8.370;2023-12-28T12:12:06;4.93;;;2.50;;
31990;SDS011;18508;49.386;8.370;2023-12-28T12:14:34;6.07;;;2.75;;
31990;SDS011;18508;49.386;8.370;2023-12-28T12:17:03;4.07;;;2.45;;
31990;SDS011;18508;49.386;8.370;2023-12-28T12:19:32;5.43;;;2.80;;
31990;SDS011;18508;49.386;8.370;2023-12-28T12:22:00;5.60;;;3.45;;
31990;SDS011;18508;49.386;8.370;2023-12-28T12:24:29;6.50;;;3.00;;
31990;SDS011;18508;49.386;8.370;2023-12-28T12:27:01;4.80;;;2.83;;
31990;SDS011;18508;49.386;8.370;2023-12-28T12:29:30;6.97;;;3.53;;
31990;SDS011;18508;49.386;8.370;2023-12-28T12:32:00;7.97;;;3.75;;
31990;SDS011;18508;49.386;8.370;2023-12-28T12:34:29;7.47;;;3.63;;
31990;SDS011;18508;49.386;8.370;2023-12-28T12:36:59;9.25;;;4.00;;
31990;SDS011;18508;49.386;8.370;2023-12-28T12:39:27;6.25;;;4.13;;
31990;SDS011;18508;49.386;8.370;2023-12-28T12:41:56;6.95;;;2.95;;
31990;SDS011;18508;49.386;8.370;2023-12-28T12:44:26;5.35;;;2.67;;
31990;SDS011;18508;49.386;8.370;2023-12-28T12:46:57;4.70;;;2.83;;
31990;SDS011;18508;49.386;8.370;2023-12-28T12:49:28;7.43;;;3.50;;
31990;SDS011;18508;49.386;8.370;2023-12-28T12:51:57;7.18;;;4.07;;
31990;SDS011;18508;49.386;8.370;2023-12-28T12:54:30;5.47;;;3.33;;
31990;SDS011;18508;49.386;8.370;2023-12-28T12:56:58;8.23;;;4.70;;
31990;SDS011;18508;49.386;8.370;2023-12-28T12:59:30;5.00;;;3.17;;
31990;SDS011;18508;49.386;8.370;2023-12-28T13:02:01;6.50;;;3.38;;
31990;SDS011;18508;49.386;8.370;2023-12-28T13:04:31;6.40;;;3.47;;
31990;SDS011;18508;49.386;8.370;2023-12-28T13:07:00;7.25;;;4.00;;
31990;SDS011;18508;49.386;8.370;2023-12-28T13:09:29;8.82;;;3.97;;
31990;SDS011;18508;49.386;8.370;2023-12-28T13:11:57;6.35;;;3.60;;
31990;SDS011;18508;49.386;8.370;2023-12-28T13:14:26;6.93;;;3.92;;
31990;SDS011;18508;49.386;8.370;2023-12-28T13:16:57;6.82;;;3.58;;
31990;SDS011;18508;49.386;8.370;2023-12-28T13:19:26;7.60;;;3.47;;
31990;SDS011;18508;49.386;8.370;2023-12-28T13:21:56;7.20;;;3.80;;
31990;SDS011;18508;49.386;8.370;2023-12-28T13:24:26;6.78;;;4.13;;
31990;SDS011;18508;49.386;8.370;2023-12-28T13:26:55;6.60;;;3.55;;
31990;SDS011;18508;49.386;8.370;2023-12-28T13:29:23;5.97;;;3.78;;
31990;SDS011;18508;49.386;8.370;2023-12-28T13:31:52;8.18;;;3.78;;
31990;SDS011;18508;49.386;8.370;2023-12-28T13:34:27;7.22;;;3.97;;
31990;SDS011;18508;49.386;8.370;2023-12-28T13:36:58;7.43;;;4.32;;
31990;SDS011;18508;49.386;8.370;2023-12-28T13:39:29;7.72;;;4.68;;
31990;SDS011;18508;49.386;8.370;2023-12-28T13:41:58;8.02;;;4.65;;
31990;SDS011;18508;49.386;8.370;2023-12-28T13:44:27;9.02;;;4.45;;
31990;SDS011;18508;49.386;8.370;2023-12-28T13:46:55;8.00;;;4.05;;
31990;SDS011;18508;49.386;8.370;2023-12-28T13:49:25;4.40;;;3.22;;
31990;SDS011;18508;49.386;8.370;2023-12-28T13:51:54;7.25;;;3.50;;
31990;SDS011;18508;49.386;8.370;2023-12-28T13:54:23;5.63;;;3.42;;
31990;SDS011;18508;49.386;8.370;2023-12-28T13:56:51;6.20;;;3.85;;
31990;SDS011;18508;49.386;8.370;2023-12-28T13:59:24;7.03;;;3.70;;
31990;SDS011;18508;49.386;8.370;2023-12-28T14:01:52;6.45;;;4.03;;
31990;SDS011;18508;49.386;8.370;2023-12-28T14:04:21;8.55;;;4.18;;
31990;SDS011;18508;49.386;8.370;2023-12-28T14:06:53;8.27;;;4.40;;
31990;SDS011;18508;49.386;8.370;2023-12-28T14:09:23;6.80;;;3.92;;
31990;SDS011;18508;49.386;8.370;2023-12-28T14:11:52;10.80;;;5.22;;
31990;SDS011;18508;49.386;8.370;2023-12-28T14:14:20;9.90;;;5.25;;
31990;SDS011;18508;49.386;8.370;2023-12-28T14:16:49;18.20;;;9.82;;
31990;SDS011;18508;49.386;8.370;2023-12-28T14:19:17;12.20;;;7.95;;
31990;SDS011;18508;49.386;8.370;2023-12-28T14:21:47;13.10;;;8.98;;
31990;SDS011;18508;49.386;8.370;2023-12-28T14:24:17;18.50;;;12.98;;
31990;SDS011;18508;49.386;8.370;2023-12-28T14:26:46;23.15;;;16.60;;
31990;SDS011;18508;49.386;8.370;2023-12-28T14:29:18;19.15;;;14.15;;
31990;SDS011;18508;49.386;8.370;2023-12-28T14:31:49;21.75;;;15.93;;
31990;SDS011;18508;49.386;8.370;2023-12-28T14:34:18;8.35;;;4.80;;
31990;SDS011;18508;49.386;8.370;2023-12-28T14:36:47;7.88;;;4.53;;
31990;SDS011;18508;49.386;8.370;2023-12-28T14:39:19;5.93;;;4.00;;
31990;SDS011;18508;49.386;8.370;2023-12-28T14:41:48;11.10;;;3.95;;
31990;SDS011;18508;49.386;8.370;2023-12-28T14:44:17;6.07;;;4.03;;
31990;SDS011;18508;49.386;8.370;2023-12-28T14:46:48;9.32;;;5.90;;
31990;SDS011;18508;49.386;8.370;2023-12-28T14:49:23;59.35;;;34.92;;
31990;SDS011;18508;49.386;8.370;2023-12-28T14:51:52;20.67;;;12.57;;
31990;SDS011;18508;49.386;8.370;2023-12-28T14:54:23;36.70;;;19.58;;
31990;SDS011;18508;49.386;8.370;2023-12-28T14:56:52;15.48;;;9.30;;
31990;SDS011;18508;49.386;8.370;2023-12-28T14:59:22;11.48;;;6.78;;